Aérodrome :
LOGIN :

S'inscrire | Disclaimer

   EN    FR    IT 

 










Légende :    VFR   VFR Marginal   IFR   IFR Intensif   IFR Très Intensif
Visi : 
Plafond : 
>= 8 km
>= 3000ft
5 à 8 km
1000 à 3000 ft
1500m à 5 km
500 à 1000 ft
800 à 1500m
200 à 500 ft
< 800m
< 200 ft
Symboles :   Orages  Brouillard  Fortes neiges  Fortes précipitations  Vent > 20 kt
SIGMETs :   Divers  Orages  Givrage  Turbulence  Onde Orograph.  Cendres Volcan.







- Altitude de l'aérodrome : 1043 ft
- Code IATA : SLD


LZSL - Sliac

DERNIER METAR :
  • 221400Z 02004KT 9999 -RA FEW012 SCT050 BKN075 19/17 Q1025

METARs EXPIRÉS :
  • 221330Z 03005KT 340V070 9999 FEW052 BKN100 19/17 Q1025
  • 221300Z 02005KT 9999 -RA FEW026 SCT037 BKN100 19/17 Q1025
  • 221230Z 02004KT 9999 -RA FEW015 SCT038 BKN050 20/17 Q1025
  • 221200Z 01007KT 9999 SCT046 BKN070 22/16 Q1025
  • 221130Z 35007KT 9999 BKN043 23/14 Q1025

TAF TAF LZSL
Valide du 22 à 12h jusqu'au 22 à 21h UTC


221100Z 2212/2221 35004KT 9999 SCT045 BKN080
TEMPO 2212/2221 -SHRA FEW040CB BKN050
PROB40
TEMPO 2212/2221 01012KT 4000 TSRA
Pas de NOTAMs connus pour ce terrain.



MET'MAP, la Météo Aéronautique d'un coup d'oeil ! - Copyright ORBIFLY Décembre 2007 - Disclaimer

ORBIFLY MET'MAP TEAM :

Programmation & Développement : Alexandra Zaïnal
Conception & Développement : Baudouin d'Aumeries
Co-Programmation & Développement : Marc-Olivier Méhu
Soutien technique & logistique : Manuel Goepfert

Contact : metmap@orbifly.com




SOURCES & CREDITS :

   NOAA